Time;durP1;ratioP1;P1;durP2;ratioP2;P2;SDS_P1;SDS_P2;PMS_P1;PMS_P2;Temp;Humidity;BMP_temperature;BMP_pressure;BME280_temperature;BME280_humidity;BME280_pressure;Samples;Min_cycle;Max_cycle;Signal;HPM_P1;HPM_P2
2021/12/26 00:00:45;;;;;;;6.95;5.45;;;;;;;4.21;80.77;95679.53;4954250;28;20134;-77
2021/12/26 00:03:13;;;;;;;5.75;4.50;;;;;;;4.20;80.59;95677.91;4954269;29;20110;-77
2021/12/26 00:05:41;;;;;;;5.25;4.18;;;;;;;4.19;80.28;95678.88;4953954;29;20048;-77
2021/12/26 00:08:08;;;;;;;5.95;4.47;;;;;;;4.16;80.19;95681.81;4953913;28;20058;-78
2021/12/26 00:10:36;;;;;;;6.30;4.63;;;;;;;4.14;81.23;95684.56;4953939;28;20059;-78
2021/12/26 00:13:05;;;;;;;5.03;3.90;;;;;;;4.13;80.44;95685.50;4954191;29;20054;-77
2021/12/26 00:15:34;;;;;;;7.22;4.55;;;;;;;4.12;80.33;95676.16;4953997;28;20513;-77
2021/12/26 00:18:01;;;;;;;4.82;4.10;;;;;;;4.15;80.74;95683.56;4953500;28;20513;-78
2021/12/26 00:20:29;;;;;;;4.47;3.88;;;;;;;4.19;80.39;95678.88;4953749;28;20047;-77
2021/12/26 00:22:57;;;;;;;4.75;4.07;;;;;;;4.21;80.63;95684.69;4953906;28;20055;-78
2021/12/26 00:25:25;;;;;;;5.45;4.70;;;;;;;4.23;80.65;95682.75;4954021;28;20062;-78
2021/12/26 00:27:53;;;;;;;5.25;4.43;;;;;;;4.26;80.33;95683.25;4953815;29;20047;-78
2021/12/26 00:30:22;;;;;;;4.90;3.80;;;;;;;4.29;80.32;95688.06;4953863;28;20058;-78
2021/12/26 00:32:51;;;;;;;4.55;3.92;;;;;;;4.31;81.02;95685.34;4953743;29;20043;-78
2021/12/26 00:35:20;;;;;;;5.18;4.03;;;;;;;4.33;81.23;95688.56;4956905;28;20051;-77
2021/12/26 00:37:49;;;;;;;4.57;3.88;;;;;;;4.35;81.43;95686.59;4957701;28;20055;-78
2021/12/26 00:40:19;;;;;;;6.63;4.95;;;;;;;4.37;80.06;95683.84;4957810;28;20054;-78
2021/12/26 00:42:49;;;;;;;6.70;4.85;;;;;;;4.33;80.33;95685.97;4957858;29;20055;-77
2021/12/26 00:45:17;;;;;;;6.88;5.00;;;;;;;4.32;80.24;95681.75;4957652;28;20055;-77
2021/12/26 00:47:46;;;;;;;7.80;5.88;;;;;;;4.29;80.89;95688.06;4957033;29;20055;-78
2021/12/26 00:50:22;;;;;;;7.63;5.55;;;;;;;4.25;80.68;95689.38;4957228;28;20058;-77
2021/12/26 00:52:50;;;;;;;7.18;5.65;;;;;;;4.20;79.93;95691.66;4957430;29;20071;-78
2021/12/26 00:55:18;;;;;;;8.02;5.57;;;;;;;4.16;80.64;95692.94;4957395;28;20490;-78
2021/12/26 00:57:46;;;;;;;7.43;5.57;;;;;;;4.15;79.88;95690.50;4957135;29;20051;-78
2021/12/26 01:00:17;;;;;;;8.90;6.05;;;;;;;4.13;80.86;95688.91;4957204;28;20055;-77
2021/12/26 01:02:47;;;;;;;8.25;6.45;;;;;;;4.07;79.95;95686.97;4957335;29;20055;-78
2021/12/26 01:05:15;;;;;;;9.02;5.63;;;;;;;4.01;79.81;95690.22;4957345;28;20047;-78
2021/12/26 01:07:55;;;;;;;9.20;6.55;;;;;;;3.97;79.95;95688.91;4956969;28;20051;-77
2021/12/26 01:10:23;;;;;;;8.35;6.03;;;;;;;3.96;79.75;95687.31;4957053;28;20047;-78
2021/12/26 01:12:53;;;;;;;8.18;6.05;;;;;;;3.94;79.39;95689.25;4956837;29;20118;-77
2021/12/26 01:15:22;;;;;;;9.70;6.50;;;;;;;3.93;79.46;95687.63;4956863;28;20051;-78
2021/12/26 01:17:56;;;;;;;8.93;6.47;;;;;;;3.95;79.75;95690.84;4956555;29;20497;-78
2021/12/26 01:20:40;;;;;;;7.47;5.43;;;;;;;4.01;79.86;95699.72;4956531;28;20058;-77
2021/12/26 01:23:09;;;;;;;7.68;5.80;;;;;;;4.04;80.55;95695.03;4957208;29;20047;-78
2021/12/26 01:25:37;;;;;;;8.93;6.40;;;;;;;4.12;82.22;95695.03;4956434;29;20429;-78
2021/12/26 01:28:06;;;;;;;9.45;6.22;;;;;;;4.22;83.33;95694.88;4956300;28;20062;-78
2021/12/26 01:30:36;;;;;;;8.02;6.20;;;;;;;4.31;82.67;95696.47;4956381;28;20071;-78
2021/12/26 01:33:06;;;;;;;7.18;5.53;;;;;;;4.36;81.59;95703.72;4956655;29;20051;-77
2021/12/26 01:35:34;;;;;;;6.32;5.18;;;;;;;4.40;80.58;95701.59;4956258;28;20058;-77
2021/12/26 01:38:01;;;;;;;6.47;5.25;;;;;;;4.40;79.85;95694.66;4956004;28;20055;-77
2021/12/26 01:40:31;;;;;;;7.82;5.93;;;;;;;4.37;79.61;95692.41;4956417;28;20226;-77
2021/12/26 01:43:02;;;;;;;6.43;5.25;;;;;;;4.38;80.42;95695.81;4956385;29;20054;-77
2021/12/26 01:45:30;;;;;;;8.82;6.10;;;;;;;4.39;80.61;95693.03;4955541;28;20062;-77
2021/12/26 01:47:59;;;;;;;8.43;6.40;;;;;;;4.39;80.02;95697.41;4955969;29;20054;-77
2021/12/26 01:50:29;;;;;;;9.10;6.47;;;;;;;4.38;79.78;95696.59;4955878;28;20054;-77
2021/12/26 01:52:57;;;;;;;7.38;5.88;;;;;;;4.37;79.64;95694.19;4955900;29;20051;-78
2021/12/26 01:55:36;;;;;;;8.75;6.72;;;;;;;4.36;79.85;95698.53;4956068;29;20054;-78
2021/12/26 01:58:05;;;;;;;8.23;5.90;;;;;;;4.32;79.39;95699.84;4955830;28;20055;-77
2021/12/26 02:00:33;;;;;;;8.82;6.50;;;;;;;4.26;79.50;95693.56;4955847;28;20062;-77
2021/12/26 02:03:01;;;;;;;9.10;6.45;;;;;;;4.23;79.59;95683.56;4956253;28;20047;-77
2021/12/26 02:05:30;;;;;;;9.80;6.80;;;;;;;4.20;79.48;95689.06;4956107;28;20043;-77
2021/12/26 02:07:58;;;;;;;8.13;6.13;;;;;;;4.18;79.10;95690.19;4955748;29;20058;-78
2021/12/26 02:10:25;;;;;;;8.30;6.28;;;;;;;4.17;79.81;95689.38;4955887;28;20058;-77
2021/12/26 02:12:53;;;;;;;7.95;6.15;;;;;;;4.17;80.07;95693.72;4955757;29;20109;-78
2021/12/26 02:15:20;;;;;;;9.82;7.07;;;;;;;4.10;80.23;95691.81;4955560;28;20054;-78
2021/12/26 02:17:48;;;;;;;10.27;7.40;;;;;;;4.06;80.04;95692.28;4955584;28;20473;-78
2021/12/26 02:20:32;;;;;;;10.40;7.85;;;;;;;3.96;78.48;95700.22;4955644;28;20047;-77
2021/12/26 02:23:05;;;;;;;11.50;7.93;;;;;;;3.84;79.15;95698.94;4955718;28;20058;-77
2021/12/26 02:28:17;;;;;;;12.23;7.95;;;;;;;3.75;79.36;95705.06;4954650;29;20055;-77
2021/12/26 02:30:45;;;;;;;13.57;8.68;;;;;;;3.74;80.07;95695.69;4955457;28;20520;-77
2021/12/26 02:33:13;;;;;;;10.07;7.25;;;;;;;3.79;80.45;95696.03;4955325;29;20090;-78
2021/12/26 02:35:43;;;;;;;11.95;8.07;;;;;;;3.80;79.63;95702.78;4955400;28;20054;-78
2021/12/26 02:38:12;;;;;;;11.00;7.90;;;;;;;3.71;79.48;95705.38;4955079;28;20051;-77
2021/12/26 02:40:41;;;;;;;12.45;8.63;;;;;;;3.63;79.38;95707.13;4955511;28;20497;-77
2021/12/26 02:43:10;;;;;;;13.45;8.73;;;;;;;3.56;79.23;95690.69;4955273;29;20071;-78
2021/12/26 02:45:37;;;;;;;15.27;9.65;;;;;;;3.48;79.67;95691.50;4955232;29;20047;-77
2021/12/26 02:48:08;;;;;;;13.40;9.45;;;;;;;3.40;79.23;95687.13;4955063;29;20473;-78
2021/12/26 02:50:38;;;;;;;15.68;9.90;;;;;;;3.36;79.88;95685.03;4955160;28;20062;-77
2021/12/26 02:53:08;;;;;;;14.07;8.98;;;;;;;3.30;79.51;95676.16;4955600;29;20058;-78
2021/12/26 02:55:36;;;;;;;14.90;9.52;;;;;;;3.28;80.76;95681.50;4956008;29;20421;-78
2021/12/26 02:58:06;;;;;;;13.23;8.57;;;;;;;3.29;80.79;95684.88;4954260;28;20083;-79
2021/12/26 03:00:39;;;;;;;13.70;8.68;;;;;;;3.24;80.64;95684.56;4955427;28;20055;-78
2021/12/26 03:03:07;;;;;;;;;;;;;;;3.24;80.57;95682.78;4955963;28;20047;-77
2021/12/26 03:05:38;;;;;;;13.38;8.48;;;;;;;3.20;80.23;95686.63;4955360;28;19930;-78
2021/12/26 03:08:10;;;;;;;15.75;9.40;;;;;;;3.18;80.81;95685.19;4955032;29;20511;-78
2021/12/26 03:10:39;;;;;;;14.90;10.00;;;;;;;3.18;80.86;95687.75;4955376;28;20051;-78
2021/12/26 03:13:09;;;;;;;13.98;8.55;;;;;;;3.16;80.73;95690.47;4955080;29;20062;-78
2021/12/26 03:15:39;;;;;;;11.25;8.38;;;;;;;3.17;80.87;95683.56;4954966;29;20055;-78
2021/12/26 03:18:08;;;;;;;11.88;8.00;;;;;;;3.13;80.74;95689.97;4954616;28;20059;-79
2021/12/26 03:20:39;;;;;;;12.32;8.38;;;;;;;3.13;81.00;95693.38;4954860;28;20513;-78
2021/12/26 03:23:10;;;;;;;10.35;7.13;;;;;;;3.06;80.88;95684.66;4954724;29;20058;-78
2021/12/26 03:25:38;;;;;;;11.85;8.50;;;;;;;3.00;80.71;95688.69;4954620;29;20505;-79
2021/12/26 03:28:08;;;;;;;10.50;7.47;;;;;;;3.00;81.48;95686.09;4954232;28;20047;-78
2021/12/26 03:30:37;;;;;;;11.07;7.72;;;;;;;3.01;81.37;95684.31;4954904;28;20059;-78
2021/12/26 03:33:08;;;;;;;11.13;7.70;;;;;;;3.02;81.80;95693.69;4954660;28;20478;-80
2021/12/26 03:35:36;;;;;;;12.65;7.50;;;;;;;3.03;81.55;95695.28;4954746;29;20051;-78
2021/12/26 03:38:06;;;;;;;10.48;7.18;;;;;;;2.99;81.36;95699.94;4954368;29;20047;-78
2021/12/26 03:40:35;;;;;;;12.48;8.75;;;;;;;2.96;81.59;95689.16;4954503;28;20518;-80
2021/12/26 03:43:02;;;;;;;13.35;9.38;;;;;;;2.97;82.10;95701.06;4954420;28;20058;-78
2021/12/26 03:45:39;;;;;;;12.65;8.68;;;;;;;2.96;82.03;95689.16;4954510;29;20047;-79
2021/12/26 03:48:07;;;;;;;13.50;8.45;;;;;;;2.96;81.74;95697.69;4954418;29;20473;-78
2021/12/26 03:50:39;;;;;;;14.98;9.20;;;;;;;2.92;81.62;95685.28;4954435;28;20055;-77
2021/12/26 03:53:06;;;;;;;14.48;9.80;;;;;;;2.94;82.24;95689.31;4954329;28;20324;-78
2021/12/26 03:55:35;;;;;;;13.27;8.57;;;;;;;2.99;82.16;95699.94;4954478;29;20058;-78
2021/12/26 03:58:03;;;;;;;14.35;9.30;;;;;;;2.97;81.75;95701.06;4954313;29;20051;-78
2021/12/26 04:00:31;;;;;;;12.15;7.63;;;;;;;2.94;81.49;95701.38;4954749;28;20058;-78
2021/12/26 04:02:59;;;;;;;14.95;9.52;;;;;;;2.92;81.49;95693.81;4955468;29;20044;-78
2021/12/26 04:05:27;;;;;;;12.80;8.15;;;;;;;2.91;80.83;95696.53;4955168;29;20047;-79
2021/12/26 04:07:54;;;;;;;14.15;8.73;;;;;;;2.86;81.43;95702.97;4954831;28;20044;-78
2021/12/26 04:10:25;;;;;;;14.75;9.40;;;;;;;2.84;81.12;95697.16;4958081;28;20054;-79
2021/12/26 04:12:54;;;;;;;15.75;10.15;;;;;;;2.86;81.55;95702.97;4958609;28;20058;-79
2021/12/26 04:15:24;;;;;;;14.35;8.98;;;;;;;2.83;81.27;95705.03;4958332;28;20055;-78
2021/12/26 04:17:54;;;;;;;15.95;9.70;;;;;;;2.78;81.15;95708.09;4957720;29;20051;-78
2021/12/26 04:20:22;;;;;;;13.60;9.48;;;;;;;2.74;81.10;95705.97;4957980;28;20493;-78
2021/12/26 04:22:50;;;;;;;15.43;9.13;;;;;;;2.68;81.24;95712.53;4958096;28;20055;-78
2021/12/26 04:25:20;;;;;;;17.35;10.55;;;;;;;2.64;81.38;95706.09;4957892;28;20505;-78
2021/12/26 04:27:48;;;;;;;18.17;10.90;;;;;;;2.60;81.18;95713.31;4957735;28;20054;-78
2021/12/26 04:30:18;;;;;;;15.23;9.80;;;;;;;2.57;81.22;95707.66;4957743;28;20547;-77
2021/12/26 04:32:47;;;;;;;15.90;9.88;;;;;;;2.58;81.23;95707.53;4957747;28;20403;-79
2021/12/26 04:35:15;;;;;;;14.93;8.50;;;;;;;2.66;81.70;95714.47;4958005;28;20071;-78
2021/12/26 04:37:43;;;;;;;15.68;9.68;;;;;;;2.73;81.31;95712.88;4957749;29;20058;-76
2021/12/26 04:40:14;;;;;;;16.73;9.02;;;;;;;2.77;80.98;95705.66;4957534;28;20511;-78
2021/12/26 04:42:44;;;;;;;16.02;10.07;;;;;;;2.75;81.11;95703.22;4957437;29;20656;-78
2021/12/26 04:45:12;;;;;;;14.20;9.02;;;;;;;2.79;81.35;95701.16;4957667;28;20055;-77
2021/12/26 04:47:44;;;;;;;16.95;10.35;;;;;;;2.81;80.93;95707.75;4957377;28;20055;-79
2021/12/26 04:50:14;;;;;;;14.43;9.70;;;;;;;2.81;81.26;95707.75;4957301;28;20510;-78
2021/12/26 04:52:44;;;;;;;12.88;8.90;;;;;;;2.83;81.26;95705.84;4957750;29;20047;-78
2021/12/26 04:55:13;;;;;;;14.68;9.57;;;;;;;2.86;80.99;95704.72;4957639;29;20055;-78
2021/12/26 04:57:40;;;;;;;13.93;9.18;;;;;;;2.84;81.10;95710.03;4956870;28;20497;-78
2021/12/26 05:00:11;;;;;;;13.75;9.05;;;;;;;2.86;80.98;95713.28;4957116;28;20429;-79
2021/12/26 05:02:39;;;;;;;15.00;9.13;;;;;;;2.93;81.51;95715.22;4957472;29;20476;-78
2021/12/26 05:05:10;;;;;;;14.70;9.15;;;;;;;2.99;81.55;95709.44;4957552;28;20051;-78
2021/12/26 05:07:39;;;;;;;15.38;9.20;;;;;;;2.97;80.77;95711.38;4957009;29;20051;-78
2021/12/26 05:10:09;;;;;;;13.32;8.73;;;;;;;2.99;81.02;95712.81;4956997;28;20532;-77
2021/12/26 05:12:37;;;;;;;15.23;9.57;;;;;;;3.03;80.65;95710.75;4957132;28;20047;-78
2021/12/26 05:15:05;;;;;;;14.52;9.10;;;;;;;3.05;80.88;95714.78;4957126;28;20509;-78
2021/12/26 05:17:33;;;;;;;13.57;8.60;;;;;;;3.03;80.56;95716.69;4957106;29;20051;-78
2021/12/26 05:20:00;;;;;;;15.18;9.00;;;;;;;3.01;80.38;95723.78;4956673;28;20051;-78
2021/12/26 05:22:29;;;;;;;14.57;8.75;;;;;;;3.00;80.24;95729.09;4956699;29;20055;-78
2021/12/26 05:24:56;;;;;;;17.65;10.20;;;;;;;2.95;80.41;95727.00;4957136;28;20055;-78
2021/12/26 05:27:24;;;;;;;14.88;9.82;;;;;;;2.90;80.34;95716.31;4956881;28;20098;-78
2021/12/26 05:29:51;;;;;;;15.55;9.45;;;;;;;2.81;80.46;95718.06;4957026;28;20493;-77
2021/12/26 05:32:19;;;;;;;15.95;9.93;;;;;;;2.78;80.85;95715.81;4956739;29;20059;-78
2021/12/26 05:34:47;;;;;;;16.63;10.80;;;;;;;2.76;80.64;95710.00;4956878;29;20063;-77
2021/12/26 05:37:14;;;;;;;14.55;9.85;;;;;;;2.75;80.64;95720.47;4956743;28;20047;-79
2021/12/26 05:39:43;;;;;;;16.73;9.68;;;;;;;2.75;80.61;95718.69;4957032;28;20066;-78
2021/12/26 05:42:15;;;;;;;14.77;9.02;;;;;;;2.73;80.92;95709.50;4956974;29;20078;-77
2021/12/26 05:44:43;;;;;;;14.05;9.52;;;;;;;2.72;80.73;95715.63;4956858;28;20548;-78
2021/12/26 05:47:11;;;;;;;16.02;9.73;;;;;;;2.73;80.94;95718.03;4956250;28;20055;-78
2021/12/26 05:49:39;;;;;;;14.75;10.13;;;;;;;2.72;80.99;95708.69;4956349;28;20047;-78
2021/12/26 05:52:09;;;;;;;14.93;9.05;;;;;;;2.70;80.68;95713.19;4956285;28;20077;-80
2021/12/26 05:54:36;;;;;;;16.77;10.23;;;;;;;2.65;80.60;95721.38;4956780;28;20051;-78
2021/12/26 05:57:06;;;;;;;16.80;9.88;;;;;;;2.61;81.76;95716.69;4956018;29;20501;-78
2021/12/26 05:59:34;;;;;;;17.55;11.35;;;;;;;2.63;81.18;95714.78;4958441;28;20402;-78
2021/12/26 06:02:02;;;;;;;16.23;9.90;;;;;;;2.60;81.45;95712.50;4957207;29;20047;-78
2021/12/26 06:04:30;;;;;;;17.98;9.90;;;;;;;2.58;81.23;95720.41;4957341;29;20274;-78
2021/12/26 06:06:58;;;;;;;16.13;10.20;;;;;;;2.58;81.21;95717.00;4956545;28;20059;-78
2021/12/26 06:09:26;;;;;;;17.85;9.75;;;;;;;2.58;81.29;95720.41;4955992;28;20056;-78
2021/12/26 06:11:53;;;;;;;13.98;8.77;;;;;;;2.61;81.20;95716.69;4955908;29;20055;-78
2021/12/26 06:14:22;;;;;;;17.92;10.38;;;;;;;2.64;81.65;95726.69;4955941;28;20433;-78
2021/12/26 06:16:50;;;;;;;14.00;9.13;;;;;;;2.66;81.30;95724.75;4955514;29;20054;-78
2021/12/26 06:19:17;;;;;;;15.73;10.52;;;;;;;2.68;81.20;95722.84;4955414;28;20058;-77
2021/12/26 06:21:45;;;;;;;16.25;10.02;;;;;;;2.66;81.05;95722.19;4955883;29;20058;-77
2021/12/26 06:24:12;;;;;;;13.95;8.85;;;;;;;2.66;81.08;95719.63;4955846;28;20062;-79
2021/12/26 06:26:41;;;;;;;15.27;9.40;;;;;;;2.67;81.03;95716.09;4955441;29;20051;-77
2021/12/26 06:29:09;;;;;;;17.05;10.07;;;;;;;2.67;80.77;95716.09;4955210;28;20047;-78
2021/12/26 06:31:38;;;;;;;13.82;8.43;;;;;;;2.61;81.00;95711.56;4955461;28;20050;-78
2021/12/26 06:34:06;;;;;;;16.50;9.55;;;;;;;2.57;80.99;95716.19;4955483;28;20433;-78
2021/12/26 06:36:33;;;;;;;15.43;9.05;;;;;;;2.58;81.39;95720.41;4955475;28;20501;-79
2021/12/26 06:39:01;;;;;;;13.45;8.30;;;;;;;2.62;81.55;95726.03;4955394;28;20110;-78
2021/12/26 06:41:28;;;;;;;13.73;9.05;;;;;;;2.65;81.40;95721.38;4955342;28;20058;-78
2021/12/26 06:43:56;;;;;;;16.58;9.77;;;;;;;2.71;81.39;95714.00;4955214;28;20062;-78
2021/12/26 06:46:23;;;;;;;13.80;8.63;;;;;;;2.72;80.94;95724.16;4954816;28;20513;-78
2021/12/26 06:48:52;;;;;;;13.15;8.50;;;;;;;2.75;80.86;95728.97;4954999;28;20050;-78
2021/12/26 06:51:20;;;;;;;12.55;7.72;;;;;;;2.77;80.63;95729.63;4955019;28;20106;-79
2021/12/26 06:53:48;;;;;;;10.90;7.90;;;;;;;2.81;81.72;95723.22;4955085;28;20062;-78
2021/12/26 06:56:15;;;;;;;13.85;8.30;;;;;;;2.84;80.93;95728.06;4954684;29;20059;-78
2021/12/26 06:58:43;;;;;;;14.27;8.65;;;;;;;2.84;81.19;95732.41;4954915;29;20066;-78
2021/12/26 07:01:11;;;;;;;12.90;8.40;;;;;;;2.82;81.79;95730.00;4954860;28;20043;-78
2021/12/26 07:03:39;;;;;;;13.20;8.95;;;;;;;2.82;81.40;95730.00;4955234;28;20051;-78
2021/12/26 07:06:07;;;;;;;14.13;9.20;;;;;;;2.80;81.01;95737.06;4954777;29;20058;-78
2021/12/26 07:08:35;;;;;;;14.32;8.60;;;;;;;2.79;80.69;95740.59;4954901;29;20062;-78
2021/12/26 07:11:03;;;;;;;14.68;9.30;;;;;;;2.78;81.11;95744.16;4954839;28;20493;-78
2021/12/26 07:13:30;;;;;;;15.25;10.00;;;;;;;2.79;81.09;95750.91;4954610;28;20051;-80
2021/12/26 07:15:57;;;;;;;14.70;9.52;;;;;;;2.80;80.96;95752.53;4954718;28;20047;-78
2021/12/26 07:18:25;;;;;;;15.63;8.90;;;;;;;2.77;80.56;95750.25;4954906;29;20058;-79
2021/12/26 07:20:53;;;;;;;15.45;9.20;;;;;;;2.74;80.56;95747.97;4955052;28;20135;-78
2021/12/26 07:23:22;;;;;;;13.45;8.88;;;;;;;2.76;80.78;95755.56;4954706;29;20149;-78
2021/12/26 07:25:49;;;;;;;16.50;9.38;;;;;;;2.78;81.24;95757.03;4954550;28;20050;-77
2021/12/26 07:28:17;;;;;;;13.98;9.02;;;;;;;2.79;80.89;95756.03;4954403;28;20498;-78
2021/12/26 07:30:45;;;;;;;14.18;9.48;;;;;;;2.74;80.42;95753.13;4954546;28;20047;-77
2021/12/26 07:33:12;;;;;;;16.00;9.48;;;;;;;2.71;80.78;95750.06;4954812;28;20055;-78
2021/12/26 07:35:40;;;;;;;14.05;8.63;;;;;;;2.67;80.63;95752.16;4954588;29;20055;-78
2021/12/26 07:38:07;;;;;;;17.50;10.27;;;;;;;2.66;81.66;95750.50;4954215;28;20059;-78
2021/12/26 07:40:36;;;;;;;14.68;9.43;;;;;;;2.68;81.97;95748.59;4954696;28;20055;-78
2021/12/26 07:43:03;;;;;;;14.20;8.68;;;;;;;2.70;81.06;95754.41;4954353;28;20402;-78
2021/12/26 07:45:31;;;;;;;14.50;9.35;;;;;;;2.68;80.69;95758.88;4954382;29;20055;-78
2021/12/26 07:47:59;;;;;;;14.25;8.93;;;;;;;2.62;80.75;95754.34;4954107;28;20058;-77
2021/12/26 07:50:26;;;;;;;16.83;9.70;;;;;;;2.61;81.40;95757.91;4954416;28;20054;-78
2021/12/26 07:52:56;;;;;;;14.10;8.73;;;;;;;2.61;81.67;95752.75;4954490;28;20051;-78
2021/12/26 07:55:24;;;;;;;14.55;9.20;;;;;;;2.61;81.44;95757.91;4954680;29;20051;-78
2021/12/26 07:57:53;;;;;;;16.08;9.95;;;;;;;2.65;82.53;95760.00;4954017;29;20047;-78
2021/12/26 08:00:21;;;;;;;12.93;8.10;;;;;;;2.74;82.64;95758.28;4954206;28;20051;-78
2021/12/26 08:02:49;;;;;;;13.57;8.15;;;;;;;2.76;81.70;95765.88;4954279;29;20047;-78
2021/12/26 08:05:17;;;;;;;13.30;7.57;;;;;;;2.77;81.51;95757.16;4954142;29;20367;-79
2021/12/26 08:07:49;;;;;;;14.90;9.23;;;;;;;2.79;81.66;95765.53;4953987;29;20051;-78
2021/12/26 08:10:17;;;;;;;13.77;8.25;;;;;;;2.82;81.47;95766.06;4953699;28;20055;-78
2021/12/26 08:12:45;;;;;;;11.57;8.13;;;;;;;2.80;81.19;95767.97;4954168;29;20048;-78
2021/12/26 08:15:14;;;;;;;12.40;8.73;;;;;;;2.80;81.07;95772.31;4954082;29;20098;-78
2021/12/26 08:17:41;;;;;;;11.68;7.95;;;;;;;2.83;81.25;95765.09;4953763;28;20502;-77
2021/12/26 08:20:10;;;;;;;14.95;8.60;;;;;;;2.89;81.47;95771.41;4953769;28;20056;-77
2021/12/26 08:22:38;;;;;;;12.57;8.32;;;;;;;2.88;81.54;95775.72;4954246;28;20055;-78
2021/12/26 08:25:06;;;;;;;11.75;8.02;;;;;;;2.91;81.68;95773.81;4954165;28;20058;-78
2021/12/26 08:27:34;;;;;;;13.88;9.48;;;;;;;2.92;81.16;95772.84;4953550;29;20059;-78
2021/12/26 08:30:02;;;;;;;12.85;8.60;;;;;;;2.94;81.67;95770.94;4953752;28;20051;-78
2021/12/26 08:32:33;;;;;;;14.65;9.07;;;;;;;2.99;81.98;95781.56;4954224;28;20047;-78
2021/12/26 08:35:01;;;;;;;15.18;9.18;;;;;;;2.97;81.60;95773.19;4953988;29;20047;-78
2021/12/26 08:37:29;;;;;;;15.43;9.57;;;;;;;2.99;81.90;95776.41;4953651;28;20043;-79
2021/12/26 08:39:57;;;;;;;12.52;8.43;;;;;;;3.03;82.31;95770.00;4953957;28;20409;-79
2021/12/26 08:42:25;;;;;;;12.68;8.10;;;;;;;3.04;81.94;95781.91;4953943;29;20434;-77
2021/12/26 08:44:53;;;;;;;13.13;7.70;;;;;;;3.06;81.19;95777.41;4953851;29;20473;-80
2021/12/26 08:47:20;;;;;;;13.73;8.75;;;;;;;3.05;81.09;95775.81;4953252;29;20502;-78
2021/12/26 08:49:49;;;;;;;13.30;8.40;;;;;;;3.00;80.88;95772.91;4953797;28;20047;-79
2021/12/26 08:52:17;;;;;;;11.57;7.38;;;;;;;2.94;81.14;95765.78;4953862;29;20058;-78
2021/12/26 08:54:45;;;;;;;10.73;6.60;;;;;;;2.89;80.93;95777.34;4954819;28;20055;-78
2021/12/26 08:57:14;;;;;;;12.80;8.43;;;;;;;2.86;80.74;95772.53;4957071;28;20062;-79
2021/12/26 08:59:42;;;;;;;12.65;7.75;;;;;;;2.88;81.00;95774.91;4957074;28;20047;-78
2021/12/26 09:02:10;;;;;;;14.25;8.02;;;;;;;2.92;81.41;95770.28;4957485;29;20461;-78
2021/12/26 09:04:39;;;;;;;15.75;8.80;;;;;;;2.99;81.25;95776.41;4957730;29;20051;-79
2021/12/26 09:07:10;;;;;;;12.55;7.57;;;;;;;3.00;81.06;95783.19;4956699;29;20051;-78
2021/12/26 09:09:38;;;;;;;13.23;8.45;;;;;;;3.02;81.21;95778.72;4957115;28;20056;-78
2021/12/26 09:12:07;;;;;;;11.98;7.88;;;;;;;3.05;81.19;95781.75;4957089;28;20136;-78
2021/12/26 09:14:35;;;;;;;10.98;7.03;;;;;;;3.12;81.11;95781.94;4957230;29;20063;-78
2021/12/26 09:17:03;;;;;;;10.13;7.20;;;;;;;3.19;81.20;95782.97;4956947;29;20505;-79
2021/12/26 09:19:32;;;;;;;9.73;6.85;;;;;;;3.26;81.01;95789.09;4957554;28;20047;-77
2021/12/26 09:22:01;;;;;;;11.15;7.40;;;;;;;3.27;80.65;95789.91;4957245;28;20051;-78
2021/12/26 09:24:30;;;;;;;8.98;6.30;;;;;;;3.27;80.45;95801.00;4957054;28;20051;-78
2021/12/26 09:26:58;;;;;;;9.80;6.75;;;;;;;3.28;80.64;95801.84;4956693;28;20517;-78
2021/12/26 09:29:25;;;;;;;9.40;7.03;;;;;;;3.30;80.73;95792.16;4956695;28;20052;-78
2021/12/26 09:31:53;;;;;;;9.45;6.38;;;;;;;3.30;80.49;95797.31;4957134;29;20340;-77
2021/12/26 09:34:21;;;;;;;10.40;6.47;;;;;;;3.29;80.76;95793.94;4958031;29;20058;-78
2021/12/26 09:36:49;;;;;;;9.88;6.65;;;;;;;3.32;80.74;95797.16;4960060;29;20508;-79
2021/12/26 09:39:18;;;;;;;9.48;6.32;;;;;;;3.33;80.28;95798.78;4958945;28;20048;-80
2021/12/26 09:41:46;;;;;;;11.00;7.75;;;;;;;3.30;80.33;95792.97;4959013;28;20051;-78
2021/12/26 09:44:19;;;;;;;9.82;6.70;;;;;;;3.31;80.46;95796.34;4957905;29;20135;-77
2021/12/26 09:46:47;;;;;;;10.82;7.00;;;;;;;3.29;80.45;95793.94;4957153;28;20057;-79
2021/12/26 09:49:14;;;;;;;10.45;7.22;;;;;;;3.33;81.02;95788.47;4957229;28;20051;-80
2021/12/26 09:51:42;;;;;;;10.65;6.97;;;;;;;3.42;81.00;95792.69;4957518;29;20047;-78
2021/12/26 09:54:10;;;;;;;8.45;6.00;;;;;;;3.44;80.47;95801.06;4957363;29;20047;-78
2021/12/26 09:56:38;;;;;;;10.43;7.05;;;;;;;3.43;80.64;95786.56;4956508;29;20055;-78
2021/12/26 09:59:14;;;;;;;8.85;6.63;;;;;;;3.42;80.61;95792.69;4956874;28;20062;-78
2021/12/26 10:01:44;;;;;;;11.65;6.70;;;;;;;3.42;80.55;95782.38;4956829;29;20058;-78
2021/12/26 10:04:20;;;;;;;9.77;6.47;;;;;;;3.45;80.98;95782.06;4956415;28;20137;-77
2021/12/26 10:06:50;;;;;;;9.25;6.95;;;;;;;3.49;80.59;95775.63;4956362;28;20477;-77
2021/12/26 10:09:20;;;;;;;9.60;6.90;;;;;;;3.56;80.71;95778.38;4957645;28;20078;-78
2021/12/26 10:11:49;;;;;;;10.90;6.80;;;;;;;3.62;80.51;95773.38;4957113;29;20061;-77
2021/12/26 10:14:20;;;;;;;9.23;6.43;;;;;;;3.66;80.60;95773.88;4955983;29;20066;-78
2021/12/26 10:16:49;;;;;;;8.90;6.53;;;;;;;3.71;80.58;95769.03;4955413;29;20059;-77
2021/12/26 10:19:17;;;;;;;9.27;6.63;;;;;;;3.77;80.64;95759.88;4955898;28;20079;-77
2021/12/26 10:21:48;;;;;;;9.52;6.53;;;;;;;3.80;80.34;95760.34;4955771;29;20584;-77
2021/12/26 10:24:19;;;;;;;10.15;6.75;;;;;;;3.81;80.26;95756.81;4956203;29;20062;-77
2021/12/26 10:26:49;;;;;;;10.38;6.43;;;;;;;3.85;80.38;95757.31;4955336;28;20062;-77
2021/12/26 10:29:27;;;;;;;10.18;6.78;;;;;;;3.88;80.26;95756.97;4955380;28;20055;-78
2021/12/26 10:32:07;;;;;;;9.23;6.40;;;;;;;3.91;80.45;95754.06;4955476;29;20059;-77
2021/12/26 10:34:40;;;;;;;7.25;5.53;;;;;;;3.88;80.03;95747.47;4955475;29;20062;-77
2021/12/26 10:37:12;;;;;;;8.55;6.15;;;;;;;3.88;80.33;95757.78;4955449;28;20143;-77
2021/12/26 10:39:42;;;;;;;9.13;6.32;;;;;;;3.89;80.08;95756.81;4955440;28;20058;-77
2021/12/26 10:42:16;;;;;;;8.90;6.80;;;;;;;3.89;79.99;95758.56;4963794;29;20047;-78
2021/12/26 10:44:47;;;;;;;8.18;6.32;;;;;;;3.92;80.34;95760.84;4960783;29;20093;-78
2021/12/26 10:47:17;;;;;;;9.68;6.00;;;;;;;3.94;80.27;95751.19;4958747;28;20477;-77
2021/12/26 10:49:49;;;;;;;7.97;5.85;;;;;;;3.98;80.30;95754.22;4956832;28;20635;-77
2021/12/26 10:52:21;;;;;;;8.15;6.15;;;;;;;4.08;80.50;95758.25;4955009;28;20055;-77
2021/12/26 10:54:58;;;;;;;8.23;6.22;;;;;;;4.24;81.00;95757.47;4935917;29;20059;-77
2021/12/26 10:57:31;;;;;;;7.45;5.82;;;;;;;4.36;80.08;95755.34;4935543;29;20102;-77
2021/12/26 11:00:11;;;;;;;7.47;5.60;;;;;;;4.41;79.49;95752.28;4935710;29;20050;-77
2021/12/26 11:02:41;;;;;;;9.70;5.95;;;;;;;4.46;80.09;95747.41;4935688;29;20506;-78
2021/12/26 11:05:11;;;;;;;8.88;5.97;;;;;;;4.56;79.53;95744.66;4935543;29;20047;-77
2021/12/26 11:07:41;;;;;;;8.43;5.60;;;;;;;4.69;79.31;95743.16;4935278;29;20055;-77
2021/12/26 11:10:12;;;;;;;6.10;5.22;;;;;;;4.86;79.15;95743.91;4935428;29;20494;-77
2021/12/26 11:12:42;;;;;;;6.88;5.07;;;;;;;5.03;79.11;95746.44;4935421;29;20509;-78
2021/12/26 11:15:13;;;;;;;6.30;5.00;;;;;;;5.19;78.73;95743.78;4935429;29;20059;-78
2021/12/26 11:17:44;;;;;;;7.03;5.63;;;;;;;5.31;77.99;95742.44;4934849;29;20506;-77
2021/12/26 11:20:21;;;;;;;7.57;5.25;;;;;;;5.35;76.69;95741.09;4934825;29;20494;-77
2021/12/26 11:22:49;;;;;;;8.82;6.55;;;;;;;5.37;77.65;95743.53;4935258;29;20055;-78
2021/12/26 11:25:17;;;;;;;6.93;5.93;;;;;;;5.44;76.98;95746.25;4935205;29;20055;-77
2021/12/26 11:27:44;;;;;;;7.93;5.95;;;;;;;5.50;77.38;95737.81;4935036;29;20520;-77
2021/12/26 11:30:14;;;;;;;6.60;5.38;;;;;;;5.51;76.11;95744.56;4935643;29;20044;-77
2021/12/26 11:32:42;;;;;;;6.28;4.55;;;;;;;5.40;76.88;95743.22;4936008;29;20051;-77
2021/12/26 11:35:10;;;;;;;5.72;4.75;;;;;;;5.29;76.79;95746.97;4936859;29;20062;-77
2021/12/26 11:37:40;;;;;;;5.15;4.32;;;;;;;5.22;76.98;95746.03;4936056;29;20051;-78
2021/12/26 11:40:12;;;;;;;5.03;4.00;;;;;;;5.21;76.96;95738.47;4935781;29;20051;-78
2021/12/26 11:43:20;;;;;;;6.22;4.93;;;;;;;5.27;76.73;95742.94;4936346;29;20055;-78
2021/12/26 11:46:00;;;;;;;5.45;4.30;;;;;;;5.28;77.12;95744.56;4935811;29;20051;-78
2021/12/26 11:48:51;;;;;;;6.32;4.75;;;;;;;5.26;76.84;95742.13;4935648;29;20052;-78